CheckWX is a tool to help pilots better visualize weather data.  It is not intended as a substitute for an official pre-flight weather briefing.

19:31:58 UTC

CYQB METAR
Quebec / Jean Lesage International Airport
Quebec, Canada
Current

32 mins ago

CYQB 221900Z 24012KT 30SM BKN040 M03/M10 A3029 RMK SC5 SLP265
Observed
Feb-22 @ 19:00 UTC
Wind
  • 240° at 12 KTS
Visibility
30 SM
Flight Rules
VFR
Cloud Levels
  • Broken at 4,000' AGL
Temperature
-3°C / 27°F
Dewpoint
-10°C / 14°F
Humidity
59%
Altimeter
30.29" Hg
Pressure
1026.5 hPa
Previous

2 hours ago

CYQB 221800Z 25015KT 30SM BKN035 M04/M10 A3029 RMK SC6 DIST PCPN N SLP263
Observed
Feb-22 @ 18:00 UTC
Wind
  • 250° at 15 KTS
Visibility
30 SM
Flight Rules
VFR
Cloud Levels
  • Broken at 3,500' AGL
Temperature
-4°C / 25°F
Dewpoint
-10°C / 14°F
Humidity
63%
Altimeter
30.29" Hg
Pressure
1026.3 hPa
Previous

3 hours ago

CYQB 221700Z 24011KT 30SM BKN035 M04/M10 A3030 RMK SC5 SLP266
Observed
Feb-22 @ 17:00 UTC
Wind
  • 240° at 11 KTS
Visibility
30 SM
Flight Rules
VFR
Cloud Levels
  • Broken at 3,500' AGL
Temperature
-4°C / 25°F
Dewpoint
-10°C / 14°F
Humidity
63%
Altimeter
30.3" Hg
Pressure
1026.6 hPa